sensor_id;sensor_type;location;lat;lon;timestamp;temperature;humidity
24446;DHT22;13347;50.984;5.822;2024-03-23T00:53:11;6.60;99.90
24446;DHT22;13347;50.984;5.822;2024-03-23T00:55:38;6.50;99.90
24446;DHT22;13347;50.984;5.822;2024-03-23T00:58:03;6.50;99.90
24446;DHT22;13347;50.984;5.822;2024-03-23T01:00:30;6.50;99.90
24446;DHT22;13347;50.984;5.822;2024-03-23T01:02:56;6.40;99.90
24446;DHT22;13347;50.984;5.822;2024-03-23T01:05:23;6.50;99.90
24446;DHT22;13347;50.984;5.822;2024-03-23T01:07:49;6.50;99.90
24446;DHT22;13347;50.984;5.822;2024-03-23T01:10:18;6.40;99.90
24446;DHT22;13347;50.984;5.822;2024-03-23T01:12:43;6.50;99.90
24446;DHT22;13347;50.984;5.822;2024-03-23T01:15:11;6.40;99.90
24446;DHT22;13347;50.984;5.822;2024-03-23T01:17:37;6.30;99.90
24446;DHT22;13347;50.984;5.822;2024-03-23T01:20:04;6.20;99.90
24446;DHT22;13347;50.984;5.822;2024-03-23T01:22:31;6.20;99.90
24446;DHT22;13347;50.984;5.822;2024-03-23T01:24:58;6.20;99.90
24446;DHT22;13347;50.984;5.822;2024-03-23T01:27:26;6.10;99.90
24446;DHT22;13347;50.984;5.822;2024-03-23T01:29:52;6.20;99.90
24446;DHT22;13347;50.984;5.822;2024-03-23T01:32:18;6.30;99.90
24446;DHT22;13347;50.984;5.822;2024-03-23T01:34:45;6.10;99.90
24446;DHT22;13347;50.984;5.822;2024-03-23T01:37:11;6.10;99.90
24446;DHT22;13347;50.984;5.822;2024-03-23T01:39:38;6.10;99.90
24446;DHT22;13347;50.984;5.822;2024-03-23T01:42:04;6.10;99.90
24446;DHT22;13347;50.984;5.822;2024-03-23T01:44:32;6.10;99.90
24446;DHT22;13347;50.984;5.822;2024-03-23T01:46:58;6.10;99.90
24446;DHT22;13347;50.984;5.822;2024-03-23T01:49:25;6.00;99.90
24446;DHT22;13347;50.984;5.822;2024-03-23T01:51:51;6.00;99.90
24446;DHT22;13347;50.984;5.822;2024-03-23T01:54:18;6.00;99.90
24446;DHT22;13347;50.984;5.822;2024-03-23T01:56:45;6.00;99.90
24446;DHT22;13347;50.984;5.822;2024-03-23T01:59:12;6.00;99.90
24446;DHT22;13347;50.984;5.822;2024-03-23T02:01:40;6.10;99.90
24446;DHT22;13347;50.984;5.822;2024-03-23T02:04:06;6.30;99.90
24446;DHT22;13347;50.984;5.822;2024-03-23T02:06:34;6.30;99.90
24446;DHT22;13347;50.984;5.822;2024-03-23T02:09:01;6.30;99.90
24446;DHT22;13347;50.984;5.822;2024-03-23T02:11:27;6.30;99.90
24446;DHT22;13347;50.984;5.822;2024-03-23T02:13:54;6.20;99.90
24446;DHT22;13347;50.984;5.822;2024-03-23T02:16:20;6.10;99.90
24446;DHT22;13347;50.984;5.822;2024-03-23T02:18:48;6.10;99.90
24446;DHT22;13347;50.984;5.822;2024-03-23T02:21:15;6.30;99.90
24446;DHT22;13347;50.984;5.822;2024-03-23T02:23:43;6.40;99.90
24446;DHT22;13347;50.984;5.822;2024-03-23T02:26:09;6.50;99.90
24446;DHT22;13347;50.984;5.822;2024-03-23T02:28:36;6.40;99.90
24446;DHT22;13347;50.984;5.822;2024-03-23T02:31:02;6.40;99.90
24446;DHT22;13347;50.984;5.822;2024-03-23T02:33:30;6.20;99.90
24446;DHT22;13347;50.984;5.822;2024-03-23T02:35:56;6.30;99.90
24446;DHT22;13347;50.984;5.822;2024-03-23T02:38:23;6.40;99.90
24446;DHT22;13347;50.984;5.822;2024-03-23T02:40:50;6.40;99.90
24446;DHT22;13347;50.984;5.822;2024-03-23T02:43:17;6.40;99.90
24446;DHT22;13347;50.984;5.822;2024-03-23T02:45:43;6.40;99.90
24446;DHT22;13347;50.984;5.822;2024-03-23T02:48:10;6.40;99.90
24446;DHT22;13347;50.984;5.822;2024-03-23T02:50:36;6.40;99.90
24446;DHT22;13347;50.984;5.822;2024-03-23T02:53:03;6.30;99.90
24446;DHT22;13347;50.984;5.822;2024-03-23T02:55:29;6.20;99.90
24446;DHT22;13347;50.984;5.822;2024-03-23T02:57:57;6.20;99.90
24446;DHT22;13347;50.984;5.822;2024-03-23T03:00:27;6.20;99.90
24446;DHT22;13347;50.984;5.822;2024-03-23T03:02:54;6.20;99.90
24446;DHT22;13347;50.984;5.822;2024-03-23T03:05:21;6.10;99.90
24446;DHT22;13347;50.984;5.822;2024-03-23T03:07:47;6.20;99.90
24446;DHT22;13347;50.984;5.822;2024-03-23T03:10:13;6.30;99.90
24446;DHT22;13347;50.984;5.822;2024-03-23T03:12:41;6.30;99.90
24446;DHT22;13347;50.984;5.822;2024-03-23T03:15:09;6.30;99.90
24446;DHT22;13347;50.984;5.822;2024-03-23T03:17:36;6.40;99.90
24446;DHT22;13347;50.984;5.822;2024-03-23T03:20:02;6.40;99.90
24446;DHT22;13347;50.984;5.822;2024-03-23T03:22:30;6.50;99.90
24446;DHT22;13347;50.984;5.822;2024-03-23T03:24:56;6.40;99.90
24446;DHT22;13347;50.984;5.822;2024-03-23T03:27:23;6.40;99.90
24446;DHT22;13347;50.984;5.822;2024-03-23T03:29:49;6.30;99.90
24446;DHT22;13347;50.984;5.822;2024-03-23T03:32:17;6.20;99.90
24446;DHT22;13347;50.984;5.822;2024-03-23T03:34:43;6.20;99.90
24446;DHT22;13347;50.984;5.822;2024-03-23T03:37:10;6.10;99.90
24446;DHT22;13347;50.984;5.822;2024-03-23T03:39:36;6.10;99.90
24446;DHT22;13347;50.984;5.822;2024-03-23T03:42:03;6.10;99.90
24446;DHT22;13347;50.984;5.822;2024-03-23T03:44:32;6.10;99.90
24446;DHT22;13347;50.984;5.822;2024-03-23T03:46:59;6.10;99.90
24446;DHT22;13347;50.984;5.822;2024-03-23T03:49:26;6.10;99.90
24446;DHT22;13347;50.984;5.822;2024-03-23T03:51:53;6.10;99.90
24446;DHT22;13347;50.984;5.822;2024-03-23T03:54:19;6.00;99.90
24446;DHT22;13347;50.984;5.822;2024-03-23T03:56:46;6.10;99.90
24446;DHT22;13347;50.984;5.822;2024-03-23T03:59:12;6.10;99.90
24446;DHT22;13347;50.984;5.822;2024-03-23T04:01:39;6.10;99.90
24446;DHT22;13347;50.984;5.822;2024-03-23T04:04:05;6.00;99.90
24446;DHT22;13347;50.984;5.822;2024-03-23T04:06:33;6.00;99.90
24446;DHT22;13347;50.984;5.822;2024-03-23T04:08:59;6.00;99.90
24446;DHT22;13347;50.984;5.822;2024-03-23T04:11:26;6.00;99.90
24446;DHT22;13347;50.984;5.822;2024-03-23T04:13:52;6.00;99.90
24446;DHT22;13347;50.984;5.822;2024-03-23T04:16:24;6.10;99.90
24446;DHT22;13347;50.984;5.822;2024-03-23T04:18:50;6.00;99.90
24446;DHT22;13347;50.984;5.822;2024-03-23T04:21:17;6.00;99.90
24446;DHT22;13347;50.984;5.822;2024-03-23T04:23:45;6.00;99.90
24446;DHT22;13347;50.984;5.822;2024-03-23T04:26:12;6.00;99.90
24446;DHT22;13347;50.984;5.822;2024-03-23T04:28:38;5.90;99.90
24446;DHT22;13347;50.984;5.822;2024-03-23T04:31:05;5.90;99.90
24446;DHT22;13347;50.984;5.822;2024-03-23T04:33:31;5.90;99.90
24446;DHT22;13347;50.984;5.822;2024-03-23T04:35:58;5.90;99.90
24446;DHT22;13347;50.984;5.822;2024-03-23T04:38:24;5.90;99.90
24446;DHT22;13347;50.984;5.822;2024-03-23T04:40:55;5.90;99.90
24446;DHT22;13347;50.984;5.822;2024-03-23T04:43:22;5.90;99.90
24446;DHT22;13347;50.984;5.822;2024-03-23T04:45:49;5.90;99.90
24446;DHT22;13347;50.984;5.822;2024-03-23T04:48:16;5.90;99.90
24446;DHT22;13347;50.984;5.822;2024-03-23T04:50:43;5.90;99.90
24446;DHT22;13347;50.984;5.822;2024-03-23T04:53:09;5.90;99.90
24446;DHT22;13347;50.984;5.822;2024-03-23T04:55:36;5.80;99.90
24446;DHT22;13347;50.984;5.822;2024-03-23T04:58:05;5.80;99.90
24446;DHT22;13347;50.984;5.822;2024-03-23T05:00:31;5.80;99.90
24446;DHT22;13347;50.984;5.822;2024-03-23T05:02:57;5.70;99.90
24446;DHT22;13347;50.984;5.822;2024-03-23T05:05:24;5.70;99.90
24446;DHT22;13347;50.984;5.822;2024-03-23T05:07:50;5.60;99.90
24446;DHT22;13347;50.984;5.822;2024-03-23T05:10:17;5.50;99.90
24446;DHT22;13347;50.984;5.822;2024-03-23T05:12:43;5.60;99.90
24446;DHT22;13347;50.984;5.822;2024-03-23T05:15:12;5.60;99.90
24446;DHT22;13347;50.984;5.822;2024-03-23T05:17:38;5.60;99.90
24446;DHT22;13347;50.984;5.822;2024-03-23T05:20:05;5.50;99.90
24446;DHT22;13347;50.984;5.822;2024-03-23T05:22:35;5.50;99.90
24446;DHT22;13347;50.984;5.822;2024-03-23T05:25:02;5.50;99.90
24446;DHT22;13347;50.984;5.822;2024-03-23T05:27:30;5.50;99.90
24446;DHT22;13347;50.984;5.822;2024-03-23T05:29:57;5.50;99.90
24446;DHT22;13347;50.984;5.822;2024-03-23T05:32:24;5.50;99.90
24446;DHT22;13347;50.984;5.822;2024-03-23T05:34:51;5.50;99.90
24446;DHT22;13347;50.984;5.822;2024-03-23T05:37:22;5.50;99.90
24446;DHT22;13347;50.984;5.822;2024-03-23T05:39:49;5.50;99.90
24446;DHT22;13347;50.984;5.822;2024-03-23T05:42:15;5.50;99.90
24446;DHT22;13347;50.984;5.822;2024-03-23T05:44:43;5.50;99.90
24446;DHT22;13347;50.984;5.822;2024-03-23T05:47:08;5.50;99.90
24446;DHT22;13347;50.984;5.822;2024-03-23T05:49:37;5.50;99.90
24446;DHT22;13347;50.984;5.822;2024-03-23T05:52:03;5.50;99.90
24446;DHT22;13347;50.984;5.822;2024-03-23T05:54:30;5.50;99.90
24446;DHT22;13347;50.984;5.822;2024-03-23T05:56:56;5.60;99.90
24446;DHT22;13347;50.984;5.822;2024-03-23T05:59:22;5.60;99.90
24446;DHT22;13347;50.984;5.822;2024-03-23T06:01:48;5.70;99.90
24446;DHT22;13347;50.984;5.822;2024-03-23T06:04:15;5.70;99.90
24446;DHT22;13347;50.984;5.822;2024-03-23T06:06:43;5.80;99.90
24446;DHT22;13347;50.984;5.822;2024-03-23T06:09:09;5.90;99.90
24446;DHT22;13347;50.984;5.822;2024-03-23T06:11:35;6.00;99.90
24446;DHT22;13347;50.984;5.822;2024-03-23T06:14:02;6.00;99.90
24446;DHT22;13347;50.984;5.822;2024-03-23T06:16:28;6.20;99.90
24446;DHT22;13347;50.984;5.822;2024-03-23T06:18:56;6.40;99.90
24446;DHT22;13347;50.984;5.822;2024-03-23T06:21:22;6.50;99.90
24446;DHT22;13347;50.984;5.822;2024-03-23T06:23:52;6.60;99.90
24446;DHT22;13347;50.984;5.822;2024-03-23T06:26:18;6.80;99.90
24446;DHT22;13347;50.984;5.822;2024-03-23T06:28:45;7.10;99.90
24446;DHT22;13347;50.984;5.822;2024-03-23T06:31:11;7.30;99.90
24446;DHT22;13347;50.984;5.822;2024-03-23T06:33:38;6.80;99.90
24446;DHT22;13347;50.984;5.822;2024-03-23T06:36:05;6.40;99.90
24446;DHT22;13347;50.984;5.822;2024-03-23T06:38:32;5.90;99.90
24446;DHT22;13347;50.984;5.822;2024-03-23T06:41:00;5.70;99.90
24446;DHT22;13347;50.984;5.822;2024-03-23T06:43:28;5.50;99.90
24446;DHT22;13347;50.984;5.822;2024-03-23T06:45:55;5.30;99.40
24446;DHT22;13347;50.984;5.822;2024-03-23T06:48:22;5.40;96.10
24446;DHT22;13347;50.984;5.822;2024-03-23T06:50:48;5.40;99.90
24446;DHT22;13347;50.984;5.822;2024-03-23T06:53:15;5.30;99.90
24446;DHT22;13347;50.984;5.822;2024-03-23T06:55:41;5.40;73.80
24446;DHT22;13347;50.984;5.822;2024-03-23T06:58:09;5.30;1.00
24446;DHT22;13347;50.984;5.822;2024-03-23T07:00:35;5.20;1.00
24446;DHT22;13347;50.984;5.822;2024-03-23T07:03:02;5.20;22.60
24446;DHT22;13347;50.984;5.822;2024-03-23T07:05:29;5.50;1.00
24446;DHT22;13347;50.984;5.822;2024-03-23T07:07:56;5.60;1.00
24446;DHT22;13347;50.984;5.822;2024-03-23T07:10:22;5.70;1.00
24446;DHT22;13347;50.984;5.822;2024-03-23T07:12:49;5.80;1.30
24446;DHT22;13347;50.984;5.822;2024-03-23T07:15:16;6.00;8.70
24446;DHT22;13347;50.984;5.822;2024-03-23T07:17:46;6.10;30.00
24446;DHT22;13347;50.984;5.822;2024-03-23T07:20:12;6.30;41.70
24446;DHT22;13347;50.984;5.822;2024-03-23T07:22:39;6.30;56.80
24446;DHT22;13347;50.984;5.822;2024-03-23T07:25:05;6.50;76.70
24446;DHT22;13347;50.984;5.822;2024-03-23T07:27:32;6.60;87.80
24446;DHT22;13347;50.984;5.822;2024-03-23T07:29:59;6.60;92.80
24446;DHT22;13347;50.984;5.822;2024-03-23T07:32:27;6.80;99.90
24446;DHT22;13347;50.984;5.822;2024-03-23T07:34:53;6.90;99.90
24446;DHT22;13347;50.984;5.822;2024-03-23T07:37:20;7.10;99.90
24446;DHT22;13347;50.984;5.822;2024-03-23T07:39:46;7.10;99.90
24446;DHT22;13347;50.984;5.822;2024-03-23T07:42:14;7.30;99.90
24446;DHT22;13347;50.984;5.822;2024-03-23T07:44:40;7.40;99.90
24446;DHT22;13347;50.984;5.822;2024-03-23T07:47:07;7.60;99.90
24446;DHT22;13347;50.984;5.822;2024-03-23T07:49:35;7.70;79.00
24446;DHT22;13347;50.984;5.822;2024-03-23T07:52:02;7.90;39.10
24446;DHT22;13347;50.984;5.822;2024-03-23T07:54:27;8.10;25.70
24446;DHT22;13347;50.984;5.822;2024-03-23T07:56:54;8.20;8.50
24446;DHT22;13347;50.984;5.822;2024-03-23T07:59:20;8.30;1.00
24446;DHT22;13347;50.984;5.822;2024-03-23T08:01:47;8.50;1.00
24446;DHT22;13347;50.984;5.822;2024-03-23T08:04:13;8.50;1.00
24446;DHT22;13347;50.984;5.822;2024-03-23T08:06:42;8.60;1.00
24446;DHT22;13347;50.984;5.822;2024-03-23T08:09:07;8.80;1.00
24446;DHT22;13347;50.984;5.822;2024-03-23T08:11:34;8.60;1.00
24446;DHT22;13347;50.984;5.822;2024-03-23T08:14:00;8.60;1.00
24446;DHT22;13347;50.984;5.822;2024-03-23T08:16:27;8.50;1.00
24446;DHT22;13347;50.984;5.822;2024-03-23T08:18:53;8.40;1.00
24446;DHT22;13347;50.984;5.822;2024-03-23T08:21:22;8.70;1.00
24446;DHT22;13347;50.984;5.822;2024-03-23T08:23:49;8.80;1.00
24446;DHT22;13347;50.984;5.822;2024-03-23T08:26:16;8.80;1.00
24446;DHT22;13347;50.984;5.822;2024-03-23T08:28:43;8.70;1.00
24446;DHT22;13347;50.984;5.822;2024-03-23T08:31:11;8.60;1.00
24446;DHT22;13347;50.984;5.822;2024-03-23T08:33:37;8.50;1.00
24446;DHT22;13347;50.984;5.822;2024-03-23T08:36:05;8.90;1.00
24446;DHT22;13347;50.984;5.822;2024-03-23T08:38:31;9.10;1.00
24446;DHT22;13347;50.984;5.822;2024-03-23T08:41:00;9.30;1.00
24446;DHT22;13347;50.984;5.822;2024-03-23T08:43:26;9.40;4.50
24446;DHT22;13347;50.984;5.822;2024-03-23T08:45:53;9.60;1.00
24446;DHT22;13347;50.984;5.822;2024-03-23T08:48:19;9.70;1.00
24446;DHT22;13347;50.984;5.822;2024-03-23T08:50:47;9.60;1.00
24446;DHT22;13347;50.984;5.822;2024-03-23T08:53:13;9.60;1.00
24446;DHT22;13347;50.984;5.822;2024-03-23T08:55:40;9.90;99.90
24446;DHT22;13347;50.984;5.822;2024-03-23T08:58:07;10.40;99.90
24446;DHT22;13347;50.984;5.822;2024-03-23T09:00:35;10.60;1.00
24446;DHT22;13347;50.984;5.822;2024-03-23T09:03:01;10.70;1.00
24446;DHT22;13347;50.984;5.822;2024-03-23T09:05:30;11.40;1.00
24446;DHT22;13347;50.984;5.822;2024-03-23T09:08:01;10.90;1.00
24446;DHT22;13347;50.984;5.822;2024-03-23T09:10:28;11.80;1.00
24446;DHT22;13347;50.984;5.822;2024-03-23T09:12:54;12.00;1.00
24446;DHT22;13347;50.984;5.822;2024-03-23T09:15:22;13.10;1.00
24446;DHT22;13347;50.984;5.822;2024-03-23T09:17:48;13.10;1.00
24446;DHT22;13347;50.984;5.822;2024-03-23T09:20:15;12.70;1.00
24446;DHT22;13347;50.984;5.822;2024-03-23T09:22:41;13.20;1.00
24446;DHT22;13347;50.984;5.822;2024-03-23T09:25:08;13.20;99.90
24446;DHT22;13347;50.984;5.822;2024-03-23T09:27:34;13.30;99.90
24446;DHT22;13347;50.984;5.822;2024-03-23T09:30:01;13.60;99.90
24446;DHT22;13347;50.984;5.822;2024-03-23T09:32:28;13.50;99.90
24446;DHT22;13347;50.984;5.822;2024-03-23T09:34:55;13.30;99.90
24446;DHT22;13347;50.984;5.822;2024-03-23T09:37:21;13.60;99.90
24446;DHT22;13347;50.984;5.822;2024-03-23T09:39:48;12.70;1.00
24446;DHT22;13347;50.984;5.822;2024-03-23T09:42:14;12.50;1.00
24446;DHT22;13347;50.984;5.822;2024-03-23T09:44:41;12.50;1.00
24446;DHT22;13347;50.984;5.822;2024-03-23T09:47:07;12.20;1.00
24446;DHT22;13347;50.984;5.822;2024-03-23T09:49:36;12.70;1.00
24446;DHT22;13347;50.984;5.822;2024-03-23T09:52:02;13.20;1.00
24446;DHT22;13347;50.984;5.822;2024-03-23T09:54:30;12.70;1.00
24446;DHT22;13347;50.984;5.822;2024-03-23T09:56:56;11.40;1.00
24446;DHT22;13347;50.984;5.822;2024-03-23T09:59:23;10.70;1.00
24446;DHT22;13347;50.984;5.822;2024-03-23T10:01:49;10.30;1.00
24446;DHT22;13347;50.984;5.822;2024-03-23T10:06:59;9.80;30.30
24446;DHT22;13347;50.984;5.822;2024-03-23T10:09:37;9.80;99.90
24446;DHT22;13347;50.984;5.822;2024-03-23T10:12:07;10.00;99.90
24446;DHT22;13347;50.984;5.822;2024-03-23T10:14:34;10.00;99.90
24446;DHT22;13347;50.984;5.822;2024-03-23T10:17:12;10.00;1.00
24446;DHT22;13347;50.984;5.822;2024-03-23T10:19:40;10.70;22.10
24446;DHT22;13347;50.984;5.822;2024-03-23T10:22:09;11.30;14.80
24446;DHT22;13347;50.984;5.822;2024-03-23T10:24:36;11.80;1.00
24446;DHT22;13347;50.984;5.822;2024-03-23T10:27:02;11.80;1.00
24446;DHT22;13347;50.984;5.822;2024-03-23T10:29:29;11.80;99.90
24446;DHT22;13347;50.984;5.822;2024-03-23T10:32:02;12.10;96.90
24446;DHT22;13347;50.984;5.822;2024-03-23T10:34:33;11.10;1.00
24446;DHT22;13347;50.984;5.822;2024-03-23T10:36:59;10.20;1.00
24446;DHT22;13347;50.984;5.822;2024-03-23T10:39:30;9.70;1.00
24446;DHT22;13347;50.984;5.822;2024-03-23T10:41:57;9.10;1.00
24446;DHT22;13347;50.984;5.822;2024-03-23T10:44:25;9.10;99.90
24446;DHT22;13347;50.984;5.822;2024-03-23T10:46:54;9.30;1.00
24446;DHT22;13347;50.984;5.822;2024-03-23T10:49:25;9.20;1.00
24446;DHT22;13347;50.984;5.822;2024-03-23T10:51:52;9.30;1.00
24446;DHT22;13347;50.984;5.822;2024-03-23T10:54:19;9.80;1.00
24446;DHT22;13347;50.984;5.822;2024-03-23T10:56:47;10.40;1.00
24446;DHT22;13347;50.984;5.822;2024-03-23T10:59:14;11.20;1.00
24446;DHT22;13347;50.984;5.822;2024-03-23T11:01:53;11.80;99.90
24446;DHT22;13347;50.984;5.822;2024-03-23T11:04:30;11.80;99.90
24446;DHT22;13347;50.984;5.822;2024-03-23T11:06:56;11.90;99.90
24446;DHT22;13347;50.984;5.822;2024-03-23T11:09:39;11.90;1.00
24446;DHT22;13347;50.984;5.822;2024-03-23T11:12:15;12.20;1.00
24446;DHT22;13347;50.984;5.822;2024-03-23T11:14:44;12.70;1.00
24446;DHT22;13347;50.984;5.822;2024-03-23T11:17:10;12.60;1.00
24446;DHT22;13347;50.984;5.822;2024-03-23T11:19:37;12.40;1.00
24446;DHT22;13347;50.984;5.822;2024-03-23T11:22:03;9.50;1.00
24446;DHT22;13347;50.984;5.822;2024-03-23T11:24:31;7.20;1.00
24446;DHT22;13347;50.984;5.822;2024-03-23T11:26:57;6.40;1.00
24446;DHT22;13347;50.984;5.822;2024-03-23T11:29:27;5.80;1.00
24446;DHT22;13347;50.984;5.822;2024-03-23T11:31:55;5.40;99.90
24446;DHT22;13347;50.984;5.822;2024-03-23T11:34:23;5.30;99.90
24446;DHT22;13347;50.984;5.822;2024-03-23T11:36:49;5.30;1.00
24446;DHT22;13347;50.984;5.822;2024-03-23T11:39:16;5.40;1.00
24446;DHT22;13347;50.984;5.822;2024-03-23T11:41:48;5.50;1.00
24446;DHT22;13347;50.984;5.822;2024-03-23T11:44:16;5.80;1.00
24446;DHT22;13347;50.984;5.822;2024-03-23T11:46:44;6.10;99.90
24446;DHT22;13347;50.984;5.822;2024-03-23T11:49:23;6.40;1.00
24446;DHT22;13347;50.984;5.822;2024-03-23T11:51:49;7.20;1.00
24446;DHT22;13347;50.984;5.822;2024-03-23T11:54:16;7.80;99.90
24446;DHT22;13347;50.984;5.822;2024-03-23T11:56:53;8.20;1.00
24446;DHT22;13347;50.984;5.822;2024-03-23T11:59:31;8.60;1.00
24446;DHT22;13347;50.984;5.822;2024-03-23T12:01:58;8.30;99.90
24446;DHT22;13347;50.984;5.822;2024-03-23T12:04:26;7.50;99.90
24446;DHT22;13347;50.984;5.822;2024-03-23T12:09:34;7.90;99.90
24446;DHT22;13347;50.984;5.822;2024-03-23T12:12:04;8.70;1.00
24446;DHT22;13347;50.984;5.822;2024-03-23T12:14:31;9.40;1.00
24446;DHT22;13347;50.984;5.822;2024-03-23T12:17:08;9.70;1.00
24446;DHT22;13347;50.984;5.822;2024-03-23T12:19:35;9.40;1.00
24446;DHT22;13347;50.984;5.822;2024-03-23T12:22:02;8.70;1.00
24446;DHT22;13347;50.984;5.822;2024-03-23T12:24:29;8.50;99.90
24446;DHT22;13347;50.984;5.822;2024-03-23T12:26:55;8.50;1.00
24446;DHT22;13347;50.984;5.822;2024-03-23T12:29:26;8.40;1.00
24446;DHT22;13347;50.984;5.822;2024-03-23T12:31:52;7.80;1.00
24446;DHT22;13347;50.984;5.822;2024-03-23T12:34:21;7.20;7.90
24446;DHT22;13347;50.984;5.822;2024-03-23T12:36:47;6.70;1.00
24446;DHT22;13347;50.984;5.822;2024-03-23T12:39:14;6.60;1.00
24446;DHT22;13347;50.984;5.822;2024-03-23T12:41:40;6.90;1.00
24446;DHT22;13347;50.984;5.822;2024-03-23T12:44:07;7.00;1.00
24446;DHT22;13347;50.984;5.822;2024-03-23T12:46:37;6.80;99.90
24446;DHT22;13347;50.984;5.822;2024-03-23T12:49:04;6.50;48.20
24446;DHT22;13347;50.984;5.822;2024-03-23T12:51:33;6.50;99.90
24446;DHT22;13347;50.984;5.822;2024-03-23T12:53:59;6.60;1.00
24446;DHT22;13347;50.984;5.822;2024-03-23T12:56:26;7.30;1.00
24446;DHT22;13347;50.984;5.822;2024-03-23T12:58:53;7.90;1.00
24446;DHT22;13347;50.984;5.822;2024-03-23T13:01:22;8.30;1.00
24446;DHT22;13347;50.984;5.822;2024-03-23T13:03:48;8.70;1.00
24446;DHT22;13347;50.984;5.822;2024-03-23T13:06:15;9.20;1.00
24446;DHT22;13347;50.984;5.822;2024-03-23T13:08:43;9.20;99.90
24446;DHT22;13347;50.984;5.822;2024-03-23T13:11:10;9.70;1.00
24446;DHT22;13347;50.984;5.822;2024-03-23T13:13:36;9.90;99.90
24446;DHT22;13347;50.984;5.822;2024-03-23T13:16:04;9.90;1.00
24446;DHT22;13347;50.984;5.822;2024-03-23T13:18:31;9.80;1.00
24446;DHT22;13347;50.984;5.822;2024-03-23T13:20:58;10.00;1.00
24446;DHT22;13347;50.984;5.822;2024-03-23T13:23:24;9.80;1.00
24446;DHT22;13347;50.984;5.822;2024-03-23T13:25:53;9.80;1.00
24446;DHT22;13347;50.984;5.822;2024-03-23T13:28:19;9.90;1.00
24446;DHT22;13347;50.984;5.822;2024-03-23T13:30:50;10.00;1.00
24446;DHT22;13347;50.984;5.822;2024-03-23T13:33:15;9.90;1.00
24446;DHT22;13347;50.984;5.822;2024-03-23T13:35:48;9.80;34.70
24446;DHT22;13347;50.984;5.822;2024-03-23T13:38:14;9.10;1.00
24446;DHT22;13347;50.984;5.822;2024-03-23T13:40:48;8.00;1.00
24446;DHT22;13347;50.984;5.822;2024-03-23T13:43:16;7.60;99.90
24446;DHT22;13347;50.984;5.822;2024-03-23T13:45:43;7.30;1.00
24446;DHT22;13347;50.984;5.822;2024-03-23T13:48:08;7.40;1.00
24446;DHT22;13347;50.984;5.822;2024-03-23T13:50:35;7.80;1.00
24446;DHT22;13347;50.984;5.822;2024-03-23T13:53:01;8.30;1.00
24446;DHT22;13347;50.984;5.822;2024-03-23T13:55:29;9.00;1.00
24446;DHT22;13347;50.984;5.822;2024-03-23T13:57:54;9.00;99.90
24446;DHT22;13347;50.984;5.822;2024-03-23T14:00:23;8.70;99.90
24446;DHT22;13347;50.984;5.822;2024-03-23T14:02:49;8.30;1.00
24446;DHT22;13347;50.984;5.822;2024-03-23T14:05:16;8.10;1.00
24446;DHT22;13347;50.984;5.822;2024-03-23T14:07:42;8.00;1.00
24446;DHT22;13347;50.984;5.822;2024-03-23T14:10:09;7.80;99.90
24446;DHT22;13347;50.984;5.822;2024-03-23T14:12:36;7.60;25.20
24446;DHT22;13347;50.984;5.822;2024-03-23T14:15:05;7.70;1.00
24446;DHT22;13347;50.984;5.822;2024-03-23T14:17:32;8.00;60.60
24446;DHT22;13347;50.984;5.822;2024-03-23T14:19:59;7.80;1.00
24446;DHT22;13347;50.984;5.822;2024-03-23T14:22:26;7.60;1.00
24446;DHT22;13347;50.984;5.822;2024-03-23T14:24:53;8.10;1.00
24446;DHT22;13347;50.984;5.822;2024-03-23T14:27:19;8.60;1.00
24446;DHT22;13347;50.984;5.822;2024-03-23T14:29:47;8.90;1.00
24446;DHT22;13347;50.984;5.822;2024-03-23T14:32:13;9.40;1.00
24446;DHT22;13347;50.984;5.822;2024-03-23T14:34:41;9.70;99.90
24446;DHT22;13347;50.984;5.822;2024-03-23T14:37:07;9.90;99.90
24446;DHT22;13347;50.984;5.822;2024-03-23T14:39:34;9.40;1.00
24446;DHT22;13347;50.984;5.822;2024-03-23T14:42:00;9.20;1.00
24446;DHT22;13347;50.984;5.822;2024-03-23T14:44:27;8.80;1.00
24446;DHT22;13347;50.984;5.822;2024-03-23T14:46:53;8.50;1.00
24446;DHT22;13347;50.984;5.822;2024-03-23T14:49:20;8.30;32.80
24446;DHT22;13347;50.984;5.822;2024-03-23T14:51:48;8.10;99.90
24446;DHT22;13347;50.984;5.822;2024-03-23T14:54:14;7.80;1.00
24446;DHT22;13347;50.984;5.822;2024-03-23T14:56:40;7.80;99.90
24446;DHT22;13347;50.984;5.822;2024-03-23T14:59:07;7.90;99.90
24446;DHT22;13347;50.984;5.822;2024-03-23T15:01:33;7.90;99.90
24446;DHT22;13347;50.984;5.822;2024-03-23T15:04:00;7.80;1.00
24446;DHT22;13347;50.984;5.822;2024-03-23T15:06:26;7.60;99.90
24446;DHT22;13347;50.984;5.822;2024-03-23T15:08:54;7.40;99.90
24446;DHT22;13347;50.984;5.822;2024-03-23T15:11:20;7.00;99.90
24446;DHT22;13347;50.984;5.822;2024-03-23T15:13:49;6.20;99.90
24446;DHT22;13347;50.984;5.822;2024-03-23T15:16:16;6.10;3.10
24446;DHT22;13347;50.984;5.822;2024-03-23T15:18:43;6.60;99.90
24446;DHT22;13347;50.984;5.822;2024-03-23T15:21:09;6.80;69.70
24446;DHT22;13347;50.984;5.822;2024-03-23T15:23:37;7.50;1.00
24446;DHT22;13347;50.984;5.822;2024-03-23T15:26:04;8.00;1.00
24446;DHT22;13347;50.984;5.822;2024-03-23T15:28:32;8.40;1.00
24446;DHT22;13347;50.984;5.822;2024-03-23T15:31:03;8.40;1.00
24446;DHT22;13347;50.984;5.822;2024-03-23T15:33:32;8.30;1.00
24446;DHT22;13347;50.984;5.822;2024-03-23T15:35:58;8.10;99.90
24446;DHT22;13347;50.984;5.822;2024-03-23T15:38:25;7.90;99.90
24446;DHT22;13347;50.984;5.822;2024-03-23T15:40:51;7.90;99.90
24446;DHT22;13347;50.984;5.822;2024-03-23T15:43:19;7.90;99.90
24446;DHT22;13347;50.984;5.822;2024-03-23T15:45:53;7.60;99.90
24446;DHT22;13347;50.984;5.822;2024-03-23T15:48:20;7.40;1.00
24446;DHT22;13347;50.984;5.822;2024-03-23T15:50:50;7.50;1.00
24446;DHT22;13347;50.984;5.822;2024-03-23T15:53:17;7.90;99.90
24446;DHT22;13347;50.984;5.822;2024-03-23T15:55:43;8.10;99.90
24446;DHT22;13347;50.984;5.822;2024-03-23T15:58:10;8.50;1.00
24446;DHT22;13347;50.984;5.822;2024-03-23T16:00:38;8.60;1.00
24446;DHT22;13347;50.984;5.822;2024-03-23T16:03:04;8.90;23.70
24446;DHT22;13347;50.984;5.822;2024-03-23T16:05:30;9.00;1.00
24446;DHT22;13347;50.984;5.822;2024-03-23T16:07:57;8.60;99.90
24446;DHT22;13347;50.984;5.822;2024-03-23T16:10:23;8.40;99.90
24446;DHT22;13347;50.984;5.822;2024-03-23T16:12:50;8.20;99.90
24446;DHT22;13347;50.984;5.822;2024-03-23T16:15:16;8.50;1.00
24446;DHT22;13347;50.984;5.822;2024-03-23T16:17:45;8.50;99.90
24446;DHT22;13347;50.984;5.822;2024-03-23T16:20:11;8.10;99.90
24446;DHT22;13347;50.984;5.822;2024-03-23T16:22:38;7.70;1.00
24446;DHT22;13347;50.984;5.822;2024-03-23T16:25:04;7.50;1.00
24446;DHT22;13347;50.984;5.822;2024-03-23T16:27:32;7.40;99.90
24446;DHT22;13347;50.984;5.822;2024-03-23T16:29:58;7.50;99.90
24446;DHT22;13347;50.984;5.822;2024-03-23T16:32:25;7.60;97.80
24446;DHT22;13347;50.984;5.822;2024-03-23T16:34:54;7.60;1.00
24446;DHT22;13347;50.984;5.822;2024-03-23T16:37:21;7.70;1.00
24446;DHT22;13347;50.984;5.822;2024-03-23T16:39:47;7.70;99.90
24446;DHT22;13347;50.984;5.822;2024-03-23T16:42:14;7.70;99.90
24446;DHT22;13347;50.984;5.822;2024-03-23T16:44:40;7.70;99.90
24446;DHT22;13347;50.984;5.822;2024-03-23T16:47:07;7.70;42.10